sensor_id;sensor_type;location;lat;lon;timestamp;temperature;humidity
6536;DHT22;34330;52.08032700;5.40923460;2022-07-05T00:00:22;19.90;61.30
6536;DHT22;34330;52.08032700;5.40923460;2022-07-05T00:02:50;19.80;61.30
6536;DHT22;34330;52.08032700;5.40923460;2022-07-05T00:15:11;19.70;62.00
6536;DHT22;34330;52.08032700;5.40923460;2022-07-05T00:17:40;19.60;62.20
6536;DHT22;34330;52.08032700;5.40923460;2022-07-05T00:20:09;19.60;62.30
6536;DHT22;34330;52.08032700;5.40923460;2022-07-05T00:22:37;19.50;62.10
6536;DHT22;34330;52.08032700;5.40923460;2022-07-05T00:25:05;19.50;62.30
6536;DHT22;34330;52.08032700;5.40923460;2022-07-05T00:27:34;19.40;63.20
6536;DHT22;34330;52.08032700;5.40923460;2022-07-05T00:34:59;19.20;64.10
6536;DHT22;34330;52.08032700;5.40923460;2022-07-05T00:37:27;19.20;63.90
6536;DHT22;34330;52.08032700;5.40923460;2022-07-05T00:42:23;19.30;64.10
6536;DHT22;34330;52.08032700;5.40923460;2022-07-05T00:44:51;19.20;63.90
6536;DHT22;34330;52.08032700;5.40923460;2022-07-05T00:47:19;19.20;63.80
6536;DHT22;34330;52.08032700;5.40923460;2022-07-05T00:52:17;19.10;63.90
6536;DHT22;34330;52.08032700;5.40923460;2022-07-05T00:54:48;19.00;63.90
6536;DHT22;34330;52.08032700;5.40923460;2022-07-05T00:57:16;19.00;63.90
6536;DHT22;34330;52.08032700;5.40923460;2022-07-05T01:02:15;18.90;63.90
6536;DHT22;34330;52.08032700;5.40923460;2022-07-05T01:04:47;18.90;64.40
6536;DHT22;34330;52.08032700;5.40923460;2022-07-05T01:07:18;18.80;64.70
6536;DHT22;34330;52.08032700;5.40923460;2022-07-05T01:12:15;18.70;64.70
6536;DHT22;34330;52.08032700;5.40923460;2022-07-05T01:14:45;18.70;65.00
6536;DHT22;34330;52.08032700;5.40923460;2022-07-05T01:17:14;18.70;65.00
6536;DHT22;34330;52.08032700;5.40923460;2022-07-05T01:22:17;18.60;65.20
6536;DHT22;34330;52.08032700;5.40923460;2022-07-05T01:24:49;18.60;65.30
6536;DHT22;34330;52.08032700;5.40923460;2022-07-05T01:27:18;18.50;65.30
6536;DHT22;34330;52.08032700;5.40923460;2022-07-05T01:32:14;18.60;65.60
6536;DHT22;34330;52.08032700;5.40923460;2022-07-05T01:37:11;18.40;67.30
6536;DHT22;34330;52.08032700;5.40923460;2022-07-05T01:39:39;18.40;67.00
6536;DHT22;34330;52.08032700;5.40923460;2022-07-05T01:42:08;18.40;66.60
6536;DHT22;34330;52.08032700;5.40923460;2022-07-05T01:44:38;18.40;66.70
6536;DHT22;34330;52.08032700;5.40923460;2022-07-05T01:47:06;18.40;66.60
6536;DHT22;34330;52.08032700;5.40923460;2022-07-05T01:49:39;18.40;66.60
6536;DHT22;34330;52.08032700;5.40923460;2022-07-05T01:52:10;18.80;67.00
6536;DHT22;34330;52.08032700;5.40923460;2022-07-05T01:54:39;18.20;66.60
6536;DHT22;34330;52.08032700;5.40923460;2022-07-05T01:57:09;18.30;67.00
6536;DHT22;34330;52.08032700;5.40923460;2022-07-05T02:02:08;18.30;67.20
6536;DHT22;34330;52.08032700;5.40923460;2022-07-05T02:04:36;18.30;67.20
6536;DHT22;34330;52.08032700;5.40923460;2022-07-05T02:07:05;18.30;67.20
6536;DHT22;34330;52.08032700;5.40923460;2022-07-05T02:12:04;20.70;69.60
6536;DHT22;34330;52.08032700;5.40923460;2022-07-05T02:14:33;18.20;67.40
6536;DHT22;34330;52.08032700;5.40923460;2022-07-05T02:24:27;18.20;67.90
6536;DHT22;34330;52.08032700;5.40923460;2022-07-05T02:31:54;18.30;68.30
6536;DHT22;34330;52.08032700;5.40923460;2022-07-05T02:36:50;18.20;68.10
6536;DHT22;34330;52.08032700;5.40923460;2022-07-05T02:49:12;18.30;68.80
6536;DHT22;34330;52.08032700;5.40923460;2022-07-05T02:54:09;18.30;68.50
6536;DHT22;34330;52.08032700;5.40923460;2022-07-05T03:04:02;18.20;68.50
6536;DHT22;34330;52.08032700;5.40923460;2022-07-05T03:06:32;18.20;68.80
6536;DHT22;34330;52.08032700;5.40923460;2022-07-05T03:23:51;18.10;69.60
6536;DHT22;34330;52.08032700;5.40923460;2022-07-05T03:26:19;18.10;69.50
6536;DHT22;34330;52.08032700;5.40923460;2022-07-05T03:41:09;18.10;70.30
6536;DHT22;34330;52.08032700;5.40923460;2022-07-05T03:46:06;18.10;70.50
6536;DHT22;34330;52.08032700;5.40923460;2022-07-05T03:53:35;18.10;70.40
6536;DHT22;34330;52.08032700;5.40923460;2022-07-05T03:58:33;18.10;71.10
6536;DHT22;34330;52.08032700;5.40923460;2022-07-05T04:01:01;18.10;71.10
6536;DHT22;34330;52.08032700;5.40923460;2022-07-05T04:03:29;18.10;71.10
6536;DHT22;34330;52.08032700;5.40923460;2022-07-05T04:05:57;18.20;71.00
6536;DHT22;34330;52.08032700;5.40923460;2022-07-05T04:10:53;18.20;71.60
6536;DHT22;34330;52.08032700;5.40923460;2022-07-05T04:15:51;18.20;71.80
6536;DHT22;34330;52.08032700;5.40923460;2022-07-05T04:30:41;18.30;72.10
6536;DHT22;34330;52.08032700;5.40923460;2022-07-05T04:33:10;18.30;72.00
6536;DHT22;34330;52.08032700;5.40923460;2022-07-05T04:43:03;18.40;71.40
6536;DHT22;34330;52.08032700;5.40923460;2022-07-05T04:45:31;18.40;71.80
6536;DHT22;34330;52.08032700;5.40923460;2022-07-05T04:50:28;18.40;72.00
6536;DHT22;34330;52.08032700;5.40923460;2022-07-05T04:52:56;18.50;72.10
6536;DHT22;34330;52.08032700;5.40923460;2022-07-05T05:00:21;18.50;73.20
6536;DHT22;34330;52.08032700;5.40923460;2022-07-05T05:02:49;18.50;73.90
6536;DHT22;34330;52.08032700;5.40923460;2022-07-05T05:05:17;18.50;74.00
6536;DHT22;34330;52.08032700;5.40923460;2022-07-05T05:07:46;18.60;73.90
6536;DHT22;34330;52.08032700;5.40923460;2022-07-05T05:10:14;18.70;73.70
6536;DHT22;34330;52.08032700;5.40923460;2022-07-05T05:12:42;18.70;73.40
6536;DHT22;34330;52.08032700;5.40923460;2022-07-05T05:15:10;18.70;73.20
6536;DHT22;34330;52.08032700;5.40923460;2022-07-05T05:17:39;18.80;73.40
6536;DHT22;34330;52.08032700;5.40923460;2022-07-05T05:20:11;18.80;73.50
6536;DHT22;34330;52.08032700;5.40923460;2022-07-05T05:22:39;18.90;73.60
6536;DHT22;34330;52.08032700;5.40923460;2022-07-05T05:25:10;18.90;73.60
6536;DHT22;34330;52.08032700;5.40923460;2022-07-05T05:27:42;18.90;73.70
6536;DHT22;34330;52.08032700;5.40923460;2022-07-05T05:30:15;19.00;74.10
6536;DHT22;34330;52.08032700;5.40923460;2022-07-05T05:32:44;19.10;74.30
6536;DHT22;34330;52.08032700;5.40923460;2022-07-05T05:35:12;19.10;74.40
6536;DHT22;34330;52.08032700;5.40923460;2022-07-05T05:37:48;19.20;74.30
6536;DHT22;34330;52.08032700;5.40923460;2022-07-05T05:40:17;19.20;74.30
6536;DHT22;34330;52.08032700;5.40923460;2022-07-05T05:45:14;19.40;74.70
6536;DHT22;34330;52.08032700;5.40923460;2022-07-05T05:47:44;19.50;74.70
6536;DHT22;34330;52.08032700;5.40923460;2022-07-05T05:50:12;19.50;74.60
6536;DHT22;34330;52.08032700;5.40923460;2022-07-05T05:52:40;19.60;74.80
6536;DHT22;34330;52.08032700;5.40923460;2022-07-05T05:55:08;19.70;74.70
6536;DHT22;34330;52.08032700;5.40923460;2022-07-05T05:57:38;19.80;74.80
6536;DHT22;34330;52.08032700;5.40923460;2022-07-05T06:00:07;19.80;75.00
6536;DHT22;34330;52.08032700;5.40923460;2022-07-05T06:02:35;19.90;75.10
6536;DHT22;34330;52.08032700;5.40923460;2022-07-05T06:05:04;20.00;75.30
6536;DHT22;34330;52.08032700;5.40923460;2022-07-05T06:07:43;20.10;75.40
6536;DHT22;34330;52.08032700;5.40923460;2022-07-05T06:10:15;20.10;75.40
6536;DHT22;34330;52.08032700;5.40923460;2022-07-05T06:12:44;20.20;75.30
6536;DHT22;34330;52.08032700;5.40923460;2022-07-05T06:15:12;20.30;75.40
6536;DHT22;34330;52.08032700;5.40923460;2022-07-05T06:17:40;20.40;75.40
6536;DHT22;34330;52.08032700;5.40923460;2022-07-05T06:20:10;20.50;75.70
6536;DHT22;34330;52.08032700;5.40923460;2022-07-05T06:22:38;20.60;75.50
6536;DHT22;34330;52.08032700;5.40923460;2022-07-05T06:25:08;20.70;75.20
6536;DHT22;34330;52.08032700;5.40923460;2022-07-05T06:27:51;20.80;75.20
6536;DHT22;34330;52.08032700;5.40923460;2022-07-05T06:30:21;20.90;75.00
6536;DHT22;34330;52.08032700;5.40923460;2022-07-05T06:32:50;21.00;74.80
6536;DHT22;34330;52.08032700;5.40923460;2022-07-05T06:35:18;21.20;74.10
6536;DHT22;34330;52.08032700;5.40923460;2022-07-05T06:37:47;21.30;73.90
6536;DHT22;34330;52.08032700;5.40923460;2022-07-05T06:40:18;21.40;73.80
6536;DHT22;34330;52.08032700;5.40923460;2022-07-05T06:42:47;21.50;73.30
6536;DHT22;34330;52.08032700;5.40923460;2022-07-05T06:45:16;21.60;72.20
6536;DHT22;34330;52.08032700;5.40923460;2022-07-05T06:47:44;21.70;72.00
6536;DHT22;34330;52.08032700;5.40923460;2022-07-05T06:50:12;21.80;71.30
6536;DHT22;34330;52.08032700;5.40923460;2022-07-05T06:52:41;21.80;71.30
6536;DHT22;34330;52.08032700;5.40923460;2022-07-05T06:55:09;21.90;70.50
6536;DHT22;34330;52.08032700;5.40923460;2022-07-05T06:57:37;22.00;70.40
6536;DHT22;34330;52.08032700;5.40923460;2022-07-05T07:00:06;22.00;70.10
6536;DHT22;34330;52.08032700;5.40923460;2022-07-05T07:02:55;22.10;69.30
6536;DHT22;34330;52.08032700;5.40923460;2022-07-05T07:05:43;22.10;69.70
6536;DHT22;34330;52.08032700;5.40923460;2022-07-05T07:08:28;22.20;69.10
6536;DHT22;34330;52.08032700;5.40923460;2022-07-05T07:11:13;22.20;69.10
6536;DHT22;34330;52.08032700;5.40923460;2022-07-05T07:13:41;22.20;69.10
6536;DHT22;34330;52.08032700;5.40923460;2022-07-05T07:16:09;22.20;68.60
6536;DHT22;34330;52.08032700;5.40923460;2022-07-05T07:18:39;22.30;68.60
6536;DHT22;34330;52.08032700;5.40923460;2022-07-05T07:21:27;22.30;68.80
6536;DHT22;34330;52.08032700;5.40923460;2022-07-05T07:23:54;22.40;68.30
6536;DHT22;34330;52.08032700;5.40923460;2022-07-05T07:26:22;22.40;68.20
6536;DHT22;34330;52.08032700;5.40923460;2022-07-05T07:28:50;23.80;69.20
6536;DHT22;34330;52.08032700;5.40923460;2022-07-05T07:31:18;22.50;68.00
6536;DHT22;34330;52.08032700;5.40923460;2022-07-05T07:33:48;22.50;67.90
6536;DHT22;34330;52.08032700;5.40923460;2022-07-05T07:36:15;22.50;67.00
6536;DHT22;34330;52.08032700;5.40923460;2022-07-05T07:38:43;25.60;70.20
6536;DHT22;34330;52.08032700;5.40923460;2022-07-05T07:41:10;22.60;66.80
6536;DHT22;34330;52.08032700;5.40923460;2022-07-05T07:43:38;22.60;66.70
6536;DHT22;34330;52.08032700;5.40923460;2022-07-05T07:46:06;22.60;67.00
6536;DHT22;34330;52.08032700;5.40923460;2022-07-05T07:48:34;22.70;66.60
6536;DHT22;34330;52.08032700;5.40923460;2022-07-05T07:51:04;22.80;66.10
6536;DHT22;34330;52.08032700;5.40923460;2022-07-05T07:53:32;22.80;65.80
6536;DHT22;34330;52.08032700;5.40923460;2022-07-05T07:56:00;22.90;66.10
6536;DHT22;34330;52.08032700;5.40923460;2022-07-05T07:58:28;22.90;65.90
6536;DHT22;34330;52.08032700;5.40923460;2022-07-05T08:00:56;23.00;65.40
6536;DHT22;34330;52.08032700;5.40923460;2022-07-05T08:03:24;23.00;65.40
6536;DHT22;34330;52.08032700;5.40923460;2022-07-05T08:05:52;23.00;65.30
6536;DHT22;34330;52.08032700;5.40923460;2022-07-05T08:08:21;23.10;64.60
6536;DHT22;34330;52.08032700;5.40923460;2022-07-05T08:10:49;24.30;65.50
6536;DHT22;34330;52.08032700;5.40923460;2022-07-05T08:13:17;23.30;64.70
6536;DHT22;34330;52.08032700;5.40923460;2022-07-05T08:15:45;23.40;64.30
6536;DHT22;34330;52.08032700;5.40923460;2022-07-05T08:18:13;23.40;64.80
6536;DHT22;34330;52.08032700;5.40923460;2022-07-05T08:20:58;23.40;64.40
6536;DHT22;34330;52.08032700;5.40923460;2022-07-05T08:23:45;23.90;64.10
6536;DHT22;34330;52.08032700;5.40923460;2022-07-05T08:26:13;23.70;62.90
6536;DHT22;34330;52.08032700;5.40923460;2022-07-05T08:28:41;23.60;63.00
6536;DHT22;34330;52.08032700;5.40923460;2022-07-05T08:31:32;23.70;62.60
6536;DHT22;34330;52.08032700;5.40923460;2022-07-05T08:34:00;23.80;62.00
6536;DHT22;34330;52.08032700;5.40923460;2022-07-05T08:36:29;23.90;61.50
6536;DHT22;34330;52.08032700;5.40923460;2022-07-05T08:38:58;23.90;61.30
6536;DHT22;34330;52.08032700;5.40923460;2022-07-05T08:41:26;23.90;61.50
6536;DHT22;34330;52.08032700;5.40923460;2022-07-05T08:43:57;23.90;61.00
6536;DHT22;34330;52.08032700;5.40923460;2022-07-05T08:46:25;24.00;60.30
6536;DHT22;34330;52.08032700;5.40923460;2022-07-05T08:48:59;24.00;60.30
6536;DHT22;34330;52.08032700;5.40923460;2022-07-05T08:51:37;24.10;59.70
6536;DHT22;34330;52.08032700;5.40923460;2022-07-05T08:54:08;24.10;59.30
6536;DHT22;34330;52.08032700;5.40923460;2022-07-05T08:56:36;25.80;60.70
6536;DHT22;34330;52.08032700;5.40923460;2022-07-05T08:59:25;27.80;62.50
6536;DHT22;34330;52.08032700;5.40923460;2022-07-05T09:01:53;24.30;59.30
6536;DHT22;34330;52.08032700;5.40923460;2022-07-05T09:04:24;24.40;59.50
6536;DHT22;34330;52.08032700;5.40923460;2022-07-05T09:06:56;27.90;63.30
6536;DHT22;34330;52.08032700;5.40923460;2022-07-05T09:09:27;24.60;59.80
6536;DHT22;34330;52.08032700;5.40923460;2022-07-05T09:11:55;28.00;62.50
6536;DHT22;34330;52.08032700;5.40923460;2022-07-05T09:14:43;24.80;59.70
6536;DHT22;34330;52.08032700;5.40923460;2022-07-05T09:17:12;24.90;58.50
6536;DHT22;34330;52.08032700;5.40923460;2022-07-05T09:19:41;25.00;59.00
6536;DHT22;34330;52.08032700;5.40923460;2022-07-05T09:22:09;25.10;57.60
6536;DHT22;34330;52.08032700;5.40923460;2022-07-05T09:24:45;26.00;58.10
6536;DHT22;34330;52.08032700;5.40923460;2022-07-05T09:27:14;25.10;56.30
6536;DHT22;34330;52.08032700;5.40923460;2022-07-05T09:29:53;25.10;56.80
6536;DHT22;34330;52.08032700;5.40923460;2022-07-05T09:32:29;25.10;56.60
6536;DHT22;34330;52.08032700;5.40923460;2022-07-05T09:34:57;25.10;56.90
6536;DHT22;34330;52.08032700;5.40923460;2022-07-05T09:37:42;25.10;56.80
6536;DHT22;34330;52.08032700;5.40923460;2022-07-05T09:40:11;28.20;58.40
6536;DHT22;34330;52.08032700;5.40923460;2022-07-05T09:42:46;25.00;57.20
6536;DHT22;34330;52.08032700;5.40923460;2022-07-05T09:45:24;25.00;57.00
6536;DHT22;34330;52.08032700;5.40923460;2022-07-05T09:47:54;28.30;59.80
6536;DHT22;34330;52.08032700;5.40923460;2022-07-05T09:50:42;25.00;57.40
6536;DHT22;34330;52.08032700;5.40923460;2022-07-05T09:53:44;25.10;56.80
6536;DHT22;34330;52.08032700;5.40923460;2022-07-05T09:56:14;25.10;56.10
6536;DHT22;34330;52.08032700;5.40923460;2022-07-05T09:58:42;25.40;56.10
6536;DHT22;34330;52.08032700;5.40923460;2022-07-05T10:01:27;26.30;56.80
6536;DHT22;34330;52.08032700;5.40923460;2022-07-05T10:03:56;25.40;55.20
6536;DHT22;34330;52.08032700;5.40923460;2022-07-05T10:06:32;25.40;56.10
6536;DHT22;34330;52.08032700;5.40923460;2022-07-05T10:09:00;25.50;56.00
6536;DHT22;34330;52.08032700;5.40923460;2022-07-05T10:11:31;25.60;54.80
6536;DHT22;34330;52.08032700;5.40923460;2022-07-05T10:13:59;25.60;54.40
6536;DHT22;34330;52.08032700;5.40923460;2022-07-05T10:16:31;25.60;54.90
6536;DHT22;34330;52.08032700;5.40923460;2022-07-05T10:18:59;25.60;54.30
6536;DHT22;34330;52.08032700;5.40923460;2022-07-05T10:21:27;25.60;54.20
6536;DHT22;34330;52.08032700;5.40923460;2022-07-05T10:24:16;25.60;54.80
6536;DHT22;34330;52.08032700;5.40923460;2022-07-05T10:26:47;25.70;54.00
6536;DHT22;34330;52.08032700;5.40923460;2022-07-05T10:29:16;26.30;53.90
6536;DHT22;34330;52.08032700;5.40923460;2022-07-05T10:31:44;25.60;53.70
6536;DHT22;34330;52.08032700;5.40923460;2022-07-05T10:34:14;25.70;53.80
6536;DHT22;34330;52.08032700;5.40923460;2022-07-05T10:37:02;25.60;53.60
6536;DHT22;34330;52.08032700;5.40923460;2022-07-05T10:39:31;25.70;54.40
6536;DHT22;34330;52.08032700;5.40923460;2022-07-05T10:42:02;28.30;54.80
6536;DHT22;34330;52.08032700;5.40923460;2022-07-05T10:44:33;25.90;52.50
6536;DHT22;34330;52.08032700;5.40923460;2022-07-05T10:47:08;26.80;53.10
6536;DHT22;34330;52.08032700;5.40923460;2022-07-05T10:49:39;29.30;53.90
6536;DHT22;34330;52.08032700;5.40923460;2022-07-05T10:52:21;29.40;55.20
6536;DHT22;34330;52.08032700;5.40923460;2022-07-05T10:55:20;27.00;53.70
6536;DHT22;34330;52.08032700;5.40923460;2022-07-05T10:58:21;26.20;52.00
6536;DHT22;34330;52.08032700;5.40923460;2022-07-05T11:03:54;26.40;51.60
6536;DHT22;34330;52.08032700;5.40923460;2022-07-05T11:06:25;26.40;52.60
6536;DHT22;34330;52.08032700;5.40923460;2022-07-05T11:09:14;26.40;52.20
6536;DHT22;34330;52.08032700;5.40923460;2022-07-05T11:11:44;26.30;49.50
6536;DHT22;34330;52.08032700;5.40923460;2022-07-05T11:14:38;26.30;50.00
6536;DHT22;34330;52.08032700;5.40923460;2022-07-05T11:17:19;26.40;51.40
6536;DHT22;34330;52.08032700;5.40923460;2022-07-05T11:20:14;26.60;51.00
6536;DHT22;34330;52.08032700;5.40923460;2022-07-05T11:23:07;26.60;51.20
6536;DHT22;34330;52.08032700;5.40923460;2022-07-05T11:25:37;26.60;50.60
6536;DHT22;34330;52.08032700;5.40923460;2022-07-05T11:28:16;26.60;51.40
6536;DHT22;34330;52.08032700;5.40923460;2022-07-05T11:30:54;26.60;51.30
6536;DHT22;34330;52.08032700;5.40923460;2022-07-05T11:33:34;26.70;51.40
6536;DHT22;34330;52.08032700;5.40923460;2022-07-05T11:36:04;26.70;51.90
6536;DHT22;34330;52.08032700;5.40923460;2022-07-05T11:38:33;26.70;51.30
6536;DHT22;34330;52.08032700;5.40923460;2022-07-05T11:41:21;26.70;50.80
6536;DHT22;34330;52.08032700;5.40923460;2022-07-05T11:43:55;26.60;50.50
6536;DHT22;34330;52.08032700;5.40923460;2022-07-05T11:46:26;26.60;51.00
6536;DHT22;34330;52.08032700;5.40923460;2022-07-05T11:49:19;26.50;50.60
6536;DHT22;34330;52.08032700;5.40923460;2022-07-05T11:51:54;26.50;50.40
6536;DHT22;34330;52.08032700;5.40923460;2022-07-05T11:54:23;26.50;50.60
6536;DHT22;34330;52.08032700;5.40923460;2022-07-05T11:56:51;26.50;50.60
6536;DHT22;34330;52.08032700;5.40923460;2022-07-05T11:59:21;27.80;51.60
6536;DHT22;34330;52.08032700;5.40923460;2022-07-05T12:01:51;26.50;50.90
6536;DHT22;34330;52.08032700;5.40923460;2022-07-05T12:04:23;26.50;50.20
6536;DHT22;34330;52.08032700;5.40923460;2022-07-05T12:06:52;29.10;51.90
6536;DHT22;34330;52.08032700;5.40923460;2022-07-05T12:09:24;26.40;50.60
6536;DHT22;34330;52.08032700;5.40923460;2022-07-05T12:11:54;26.30;51.00
6536;DHT22;34330;52.08032700;5.40923460;2022-07-05T12:14:47;26.40;50.70
6536;DHT22;34330;52.08032700;5.40923460;2022-07-05T12:17:18;27.60;51.00
6536;DHT22;34330;52.08032700;5.40923460;2022-07-05T12:19:53;26.40;50.20
6536;DHT22;34330;52.08032700;5.40923460;2022-07-05T12:22:29;26.40;50.30
6536;DHT22;34330;52.08032700;5.40923460;2022-07-05T12:24:58;27.80;50.00
6536;DHT22;34330;52.08032700;5.40923460;2022-07-05T12:27:28;26.50;50.00
6536;DHT22;34330;52.08032700;5.40923460;2022-07-05T12:29:57;26.60;49.40
6536;DHT22;34330;52.08032700;5.40923460;2022-07-05T12:32:26;26.60;49.30
6536;DHT22;34330;52.08032700;5.40923460;2022-07-05T12:34:55;26.70;48.80
6536;DHT22;34330;52.08032700;5.40923460;2022-07-05T12:37:31;26.60;49.10
6536;DHT22;34330;52.08032700;5.40923460;2022-07-05T12:40:04;26.70;49.00
6536;DHT22;34330;52.08032700;5.40923460;2022-07-05T12:42:33;26.60;48.30
6536;DHT22;34330;52.08032700;5.40923460;2022-07-05T12:45:12;26.70;48.10
6536;DHT22;34330;52.08032700;5.40923460;2022-07-05T12:47:53;26.60;47.70
6536;DHT22;34330;52.08032700;5.40923460;2022-07-05T12:50:22;28.60;48.20
6536;DHT22;34330;52.08032700;5.40923460;2022-07-05T12:52:59;26.60;48.10
6536;DHT22;34330;52.08032700;5.40923460;2022-07-05T12:55:35;26.60;47.30
6536;DHT22;34330;52.08032700;5.40923460;2022-07-05T12:58:20;27.50;47.70
6536;DHT22;34330;52.08032700;5.40923460;2022-07-05T13:00:48;26.50;48.00
6536;DHT22;34330;52.08032700;5.40923460;2022-07-05T13:03:18;26.50;47.40
6536;DHT22;34330;52.08032700;5.40923460;2022-07-05T13:06:00;26.50;46.80
6536;DHT22;34330;52.08032700;5.40923460;2022-07-05T13:08:30;26.60;46.80
6536;DHT22;34330;52.08032700;5.40923460;2022-07-05T13:10:57;26.70;47.40
6536;DHT22;34330;52.08032700;5.40923460;2022-07-05T13:13:26;27.70;47.00
6536;DHT22;34330;52.08032700;5.40923460;2022-07-05T13:15:55;26.80;46.50
6536;DHT22;34330;52.08032700;5.40923460;2022-07-05T13:18:25;26.90;46.10
6536;DHT22;34330;52.08032700;5.40923460;2022-07-05T13:20:54;26.90;45.60
6536;DHT22;34330;52.08032700;5.40923460;2022-07-05T13:23:22;27.10;46.20
6536;DHT22;34330;52.08032700;5.40923460;2022-07-05T13:25:51;27.00;45.80
6536;DHT22;34330;52.08032700;5.40923460;2022-07-05T13:28:18;27.00;45.70
6536;DHT22;34330;52.08032700;5.40923460;2022-07-05T13:30:46;26.90;45.70
6536;DHT22;34330;52.08032700;5.40923460;2022-07-05T13:33:14;26.90;45.10
6536;DHT22;34330;52.08032700;5.40923460;2022-07-05T13:35:44;27.50;45.70
6536;DHT22;34330;52.08032700;5.40923460;2022-07-05T13:38:12;26.90;45.30
6536;DHT22;34330;52.08032700;5.40923460;2022-07-05T13:40:40;26.90;45.80
6536;DHT22;34330;52.08032700;5.40923460;2022-07-05T13:43:08;26.90;45.60
6536;DHT22;34330;52.08032700;5.40923460;2022-07-05T13:45:36;26.90;45.00
6536;DHT22;34330;52.08032700;5.40923460;2022-07-05T13:48:04;27.00;45.10
6536;DHT22;34330;52.08032700;5.40923460;2022-07-05T13:50:33;27.00;45.10
6536;DHT22;34330;52.08032700;5.40923460;2022-07-05T13:53:03;29.30;45.90
6536;DHT22;34330;52.08032700;5.40923460;2022-07-05T13:55:31;27.90;44.20
6536;DHT22;34330;52.08032700;5.40923460;2022-07-05T13:58:00;26.90;44.40
6536;DHT22;34330;52.08032700;5.40923460;2022-07-05T14:00:28;27.80;44.90
6536;DHT22;34330;52.08032700;5.40923460;2022-07-05T14:02:56;26.90;44.80
6536;DHT22;34330;52.08032700;5.40923460;2022-07-05T14:05:31;28.80;46.00
6536;DHT22;34330;52.08032700;5.40923460;2022-07-05T14:07:59;27.00;44.50
6536;DHT22;34330;52.08032700;5.40923460;2022-07-05T14:10:29;27.10;44.20
6536;DHT22;34330;52.08032700;5.40923460;2022-07-05T14:12:57;27.10;44.10
6536;DHT22;34330;52.08032700;5.40923460;2022-07-05T14:15:24;27.20;44.70
6536;DHT22;34330;52.08032700;5.40923460;2022-07-05T14:17:52;28.30;45.90
6536;DHT22;34330;52.08032700;5.40923460;2022-07-05T14:20:21;27.30;44.70
6536;DHT22;34330;52.08032700;5.40923460;2022-07-05T14:22:49;27.30;44.80
6536;DHT22;34330;52.08032700;5.40923460;2022-07-05T14:25:17;27.40;45.00
6536;DHT22;34330;52.08032700;5.40923460;2022-07-05T14:27:46;27.50;44.60
6536;DHT22;34330;52.08032700;5.40923460;2022-07-05T14:30:14;27.60;45.00
6536;DHT22;34330;52.08032700;5.40923460;2022-07-05T14:32:42;27.70;45.40
6536;DHT22;34330;52.08032700;5.40923460;2022-07-05T14:35:15;27.80;44.60
6536;DHT22;34330;52.08032700;5.40923460;2022-07-05T14:37:43;28.00;44.40
6536;DHT22;34330;52.08032700;5.40923460;2022-07-05T14:40:11;28.10;43.80
6536;DHT22;34330;52.08032700;5.40923460;2022-07-05T14:42:39;28.20;42.90
6536;DHT22;34330;52.08032700;5.40923460;2022-07-05T14:45:09;28.30;42.90
6536;DHT22;34330;52.08032700;5.40923460;2022-07-05T14:47:37;28.40;43.40
6536;DHT22;34330;52.08032700;5.40923460;2022-07-05T14:50:05;28.40;43.00
6536;DHT22;34330;52.08032700;5.40923460;2022-07-05T14:52:33;28.40;43.20
6536;DHT22;34330;52.08032700;5.40923460;2022-07-05T14:55:01;28.40;43.00
6536;DHT22;34330;52.08032700;5.40923460;2022-07-05T14:57:29;28.40;43.50
6536;DHT22;34330;52.08032700;5.40923460;2022-07-05T14:59:57;30.10;44.20
6536;DHT22;34330;52.08032700;5.40923460;2022-07-05T15:02:27;28.60;42.90
6536;DHT22;34330;52.08032700;5.40923460;2022-07-05T15:04:55;28.60;43.20
6536;DHT22;34330;52.08032700;5.40923460;2022-07-05T15:07:23;28.70;43.20
6536;DHT22;34330;52.08032700;5.40923460;2022-07-05T15:09:51;28.80;43.10
6536;DHT22;34330;52.08032700;5.40923460;2022-07-05T15:12:19;28.80;42.90
6536;DHT22;34330;52.08032700;5.40923460;2022-07-05T15:14:47;28.80;42.70
6536;DHT22;34330;52.08032700;5.40923460;2022-07-05T15:17:17;28.80;42.80
6536;DHT22;34330;52.08032700;5.40923460;2022-07-05T15:19:46;28.80;42.50
6536;DHT22;34330;52.08032700;5.40923460;2022-07-05T15:22:14;28.80;42.30
6536;DHT22;34330;52.08032700;5.40923460;2022-07-05T15:24:43;30.50;43.50
6536;DHT22;34330;52.08032700;5.40923460;2022-07-05T15:27:11;28.70;42.30
6536;DHT22;34330;52.08032700;5.40923460;2022-07-05T15:29:45;28.50;41.70
6536;DHT22;34330;52.08032700;5.40923460;2022-07-05T15:32:13;28.40;42.20
6536;DHT22;34330;52.08032700;5.40923460;2022-07-05T15:34:41;28.40;42.40
6536;DHT22;34330;52.08032700;5.40923460;2022-07-05T15:37:12;28.40;42.70
6536;DHT22;34330;52.08032700;5.40923460;2022-07-05T15:39:40;29.90;42.90
6536;DHT22;34330;52.08032700;5.40923460;2022-07-05T15:42:08;28.50;42.50
6536;DHT22;34330;52.08032700;5.40923460;2022-07-05T15:44:36;28.60;42.70
6536;DHT22;34330;52.08032700;5.40923460;2022-07-05T15:47:04;29.90;43.90
6536;DHT22;34330;52.08032700;5.40923460;2022-07-05T15:49:36;28.60;42.90
6536;DHT22;34330;52.08032700;5.40923460;2022-07-05T15:52:04;29.20;43.40
6536;DHT22;34330;52.08032700;5.40923460;2022-07-05T15:54:35;28.70;43.40
6536;DHT22;34330;52.08032700;5.40923460;2022-07-05T15:57:03;28.80;43.30
6536;DHT22;34330;52.08032700;5.40923460;2022-07-05T15:59:31;29.00;43.20
6536;DHT22;34330;52.08032700;5.40923460;2022-07-05T16:01:59;29.20;43.50
6536;DHT22;34330;52.08032700;5.40923460;2022-07-05T16:04:27;29.50;42.90
6536;DHT22;34330;52.08032700;5.40923460;2022-07-05T16:06:57;29.70;41.90
6536;DHT22;34330;52.08032700;5.40923460;2022-07-05T16:09:25;29.50;40.80
6536;DHT22;34330;52.08032700;5.40923460;2022-07-05T16:11:55;32.40;43.40
6536;DHT22;34330;52.08032700;5.40923460;2022-07-05T16:14:23;29.20;40.70
6536;DHT22;34330;52.08032700;5.40923460;2022-07-05T16:16:51;29.10;41.30
6536;DHT22;34330;52.08032700;5.40923460;2022-07-05T16:19:19;29.10;41.30
6536;DHT22;34330;52.08032700;5.40923460;2022-07-05T16:21:47;29.80;42.10